createdAt,value
2019-05-23T00:04:50.658Z,19.63
2019-05-23T00:15:32.927Z,21.93
2019-05-23T00:25:38.055Z,22.97
2019-05-23T00:35:43.318Z,22.90
2019-05-23T00:45:49.153Z,23.87
2019-05-23T00:56:00.288Z,20.00
2019-05-23T01:06:07.005Z,22.87
2019-05-23T01:16:12.369Z,22.03
2019-05-23T01:26:18.549Z,18.30
2019-05-23T01:36:24.464Z,20.80
2019-05-23T01:46:29.966Z,16.63
2019-05-23T01:56:34.963Z,23.30
2019-05-23T02:06:39.859Z,18.60
2019-05-23T02:16:46.493Z,28.03
2019-05-23T02:26:51.081Z,27.20
2019-05-23T02:36:57.229Z,22.90
2019-05-23T02:47:23.325Z,21.17
2019-05-23T02:57:29.404Z,21.90
2019-05-23T03:07:36.028Z,26.67
2019-05-23T03:17:41.375Z,23.97
2019-05-23T03:27:47.334Z,25.43
2019-05-23T03:37:53.676Z,21.90
2019-05-23T03:47:58.182Z,27.30
2019-05-23T03:58:03.150Z,22.87
2019-05-23T04:08:07.953Z,25.80
2019-05-23T04:18:12.628Z,19.90
2019-05-23T04:28:31.439Z,23.17
2019-05-23T04:38:44.909Z,22.00
2019-05-23T04:48:52.583Z,19.03
2019-05-23T04:58:59.282Z,20.07
2019-05-23T05:09:06.211Z,19.47
2019-05-23T05:19:12.438Z,19.70
2019-05-23T05:29:30.484Z,22.17
2019-05-23T05:39:40.715Z,20.23
2019-05-23T05:49:45.724Z,25.47
2019-05-23T05:59:51.041Z,20.53
2019-05-23T06:09:57.183Z,22.20
2019-05-23T06:20:03.812Z,22.57
2019-05-23T06:30:10.276Z,16.53
2019-05-23T06:40:15.208Z,20.27
2019-05-23T06:50:20.620Z,22.80
2019-05-23T07:00:26.772Z,19.80
2019-05-23T07:10:33.044Z,17.57
2019-05-23T07:20:44.497Z,20.13
2019-05-23T07:30:50.184Z,16.90
2019-05-23T07:40:55.620Z,9.80
2019-05-23T07:51:00.148Z,10.70
2019-05-23T08:01:06.606Z,13.63
2019-05-23T08:11:11.349Z,15.30
2019-05-23T08:21:16.140Z,10.80
2019-05-23T08:31:20.819Z,8.67
2019-05-23T08:41:28.516Z,19.77
2019-05-23T08:51:33.629Z,14.50
2019-05-23T09:01:38.100Z,14.70
2019-05-23T09:11:43.040Z,15.47
2019-05-23T09:21:48.430Z,11.87
2019-05-23T09:31:53.555Z,33.47
2019-05-23T09:41:59.447Z,14.40
2019-05-23T09:52:06.511Z,19.07
2019-05-23T10:02:12.020Z,12.10
2019-05-23T10:12:17.284Z,9.77
2019-05-23T10:22:22.333Z,10.73
2019-05-23T10:32:27.075Z,9.63
2019-05-23T10:42:32.579Z,8.63
2019-05-23T10:52:37.564Z,8.13
2019-05-23T11:02:43.901Z,7.00
2019-05-23T11:12:52.655Z,5.93
2019-05-23T11:22:57.982Z,6.37
2019-05-23T11:33:02.599Z,3.90
2019-05-23T11:43:07.628Z,3.73
2019-05-23T11:53:12.324Z,3.90
2019-05-23T12:03:18.273Z,4.13
2019-05-23T12:13:22.837Z,6.30
2019-05-23T12:23:28.047Z,3.73
2019-05-23T12:33:32.621Z,3.73
2019-05-23T12:43:37.767Z,5.00
2019-05-23T12:53:47.105Z,6.17
2019-05-23T13:03:52.763Z,4.47
2019-05-23T13:13:57.665Z,6.37
2019-05-23T13:24:05.015Z,4.33
2019-05-23T13:34:10.503Z,4.53
2019-05-23T13:44:32.569Z,3.87
2019-05-23T14:15:05.398Z,3.80
2019-05-23T14:25:10.028Z,5.13
2019-05-23T14:35:16.736Z,5.27
2019-05-23T14:45:38.095Z,4.23
2019-05-23T14:55:43.055Z,4.13
2019-05-23T15:05:47.508Z,6.60
2019-05-23T15:15:51.910Z,4.10
2019-05-23T15:25:59.008Z,3.00
2019-05-23T15:36:03.973Z,2.83
2019-05-23T15:46:08.904Z,3.60
2019-05-23T15:56:27.515Z,3.07
2019-05-23T16:06:31.540Z,3.30
2019-05-23T16:16:37.073Z,3.00
2019-05-23T16:26:42.376Z,3.20
2019-05-23T16:36:46.878Z,3.33
2019-05-23T16:46:51.987Z,3.70
2019-05-23T16:57:16.177Z,3.27
2019-05-23T17:07:37.462Z,3.10
2019-05-23T17:18:01.459Z,3.73
2019-05-23T17:28:04.426Z,3.90
2019-05-23T17:38:08.992Z,6.43
2019-05-23T17:48:14.017Z,3.40
2019-05-23T17:58:20.434Z,3.57
2019-05-23T18:08:27.839Z,3.40
2019-05-23T18:18:33.850Z,3.80
2019-05-23T18:28:40.499Z,3.53
2019-05-23T18:38:46.038Z,3.80
2019-05-23T18:48:52.983Z,3.73
2019-05-23T18:59:02.892Z,9.50
2019-05-23T19:09:11.880Z,4.17
2019-05-23T19:19:16.538Z,5.30
2019-05-23T19:29:23.388Z,4.63
2019-05-23T19:39:28.896Z,3.80
2019-05-23T19:49:36.536Z,5.13
2019-05-23T19:59:42.583Z,4.70
2019-05-23T20:09:49.294Z,4.80
2019-05-23T20:20:00.217Z,8.93
2019-05-23T20:30:08.565Z,14.17
2019-05-23T20:40:13.485Z,4.00
2019-05-23T20:50:18.353Z,4.10
2019-05-23T21:00:30.131Z,4.33
2019-05-23T21:10:47.272Z,4.47
2019-05-23T21:20:52.195Z,5.57
2019-05-23T21:30:58.075Z,11.43
2019-05-23T21:41:03.590Z,3.80
2019-05-23T21:51:08.277Z,3.63
2019-05-23T22:01:14.972Z,6.13
2019-05-23T22:11:20.048Z,3.80
2019-05-23T22:21:25.326Z,4.73
2019-05-23T22:31:29.925Z,3.70
2019-05-23T22:41:34.528Z,9.23
2019-05-23T22:51:39.142Z,3.90
2019-05-23T23:01:43.807Z,4.27
2019-05-23T23:11:49.688Z,4.67
2019-05-23T23:21:54.451Z,4.10
2019-05-23T23:31:58.913Z,5.40
2019-05-23T23:42:05.087Z,7.03
2019-05-23T23:52:27.348Z,6.90
